createdAt,value
2018-12-04T00:00:28.819Z,1.90
2018-12-04T00:02:57.426Z,2.40
2018-12-04T00:05:25.983Z,2.40
2018-12-04T00:07:54.617Z,2.33
2018-12-04T00:10:23.210Z,2.40
2018-12-04T00:12:51.813Z,2.30
2018-12-04T00:15:20.400Z,2.17
2018-12-04T00:17:49.079Z,2.57
2018-12-04T00:20:20.484Z,2.07
2018-12-04T00:22:48.986Z,2.50
2018-12-04T00:25:17.547Z,2.50
2018-12-04T00:27:46.113Z,1.80
2018-12-04T00:30:14.698Z,2.50
2018-12-04T00:32:43.284Z,2.23
2018-12-04T00:35:11.930Z,2.23
2018-12-04T00:37:40.574Z,2.27
2018-12-04T00:40:09.904Z,2.23
2018-12-04T00:42:38.510Z,2.37
2018-12-04T00:45:09.151Z,2.40
2018-12-04T00:47:37.699Z,2.47
2018-12-04T00:50:06.955Z,2.57
2018-12-04T00:52:35.582Z,2.20
2018-12-04T00:55:05.825Z,2.40
2018-12-04T00:57:34.401Z,2.03
2018-12-04T01:00:03.926Z,2.20
2018-12-04T01:02:32.516Z,3.23
2018-12-04T01:05:01.104Z,3.00
2018-12-04T01:07:29.632Z,2.23
2018-12-04T01:09:58.241Z,1.90
2018-12-04T01:12:26.863Z,2.33
2018-12-04T01:14:56.557Z,2.00
2018-12-04T01:17:25.707Z,2.57
2018-12-04T01:19:54.291Z,2.23
2018-12-04T01:22:22.853Z,1.93
2018-12-04T01:24:51.369Z,2.40
2018-12-04T01:27:19.986Z,3.10
2018-12-04T01:29:48.522Z,3.93
2018-12-04T01:32:17.119Z,2.53
2018-12-04T01:34:45.700Z,2.57
2018-12-04T01:37:14.283Z,2.40
2018-12-04T01:39:42.847Z,2.07
2018-12-04T01:42:11.434Z,3.20
2018-12-04T01:44:40.036Z,2.57
2018-12-04T01:47:08.642Z,2.63
2018-12-04T01:49:37.254Z,2.63
2018-12-04T01:52:05.980Z,2.67
2018-12-04T01:54:34.568Z,2.90
2018-12-04T01:57:06.264Z,3.57
2018-12-04T01:59:34.869Z,2.27
2018-12-04T02:02:03.473Z,2.33
2018-12-04T02:04:32.035Z,2.00
2018-12-04T02:07:00.589Z,2.73
2018-12-04T02:09:29.169Z,2.90
2018-12-04T02:11:57.854Z,3.10
2018-12-04T02:14:26.628Z,1.97
2018-12-04T02:16:55.180Z,2.20
2018-12-04T02:19:23.808Z,1.87
2018-12-04T02:21:52.404Z,2.10
2018-12-04T02:24:21.253Z,2.80
2018-12-04T02:26:50.010Z,2.50
2018-12-04T02:29:18.575Z,2.30
2018-12-04T02:31:47.173Z,2.97
2018-12-04T02:34:15.780Z,2.33
2018-12-04T02:36:44.382Z,2.43
2018-12-04T02:39:12.933Z,2.50
2018-12-04T02:41:41.475Z,2.00
2018-12-04T02:44:10.132Z,2.40
2018-12-04T02:46:38.736Z,1.80
2018-12-04T02:49:07.356Z,1.80
2018-12-04T02:51:35.952Z,1.63
2018-12-04T02:54:04.636Z,1.67
2018-12-04T02:56:33.201Z,2.20
2018-12-04T02:59:01.783Z,2.10
2018-12-04T03:01:30.322Z,1.40
2018-12-04T03:03:58.922Z,2.03
2018-12-04T03:06:27.574Z,2.40
2018-12-04T03:08:56.141Z,2.00
2018-12-04T03:11:24.789Z,1.57
2018-12-04T03:13:53.436Z,1.80
2018-12-04T03:16:21.959Z,1.93
2018-12-04T03:18:50.535Z,1.80
2018-12-04T03:21:19.283Z,1.80
2018-12-04T03:23:47.826Z,1.70
2018-12-04T03:26:16.414Z,1.90
2018-12-04T03:28:44.973Z,2.33
2018-12-04T03:31:13.505Z,2.30
2018-12-04T03:33:42.760Z,2.43
2018-12-04T03:36:11.408Z,2.10
2018-12-04T03:38:40.234Z,2.27
2018-12-04T03:41:08.854Z,2.83
2018-12-04T03:43:37.466Z,2.40
2018-12-04T03:46:06.088Z,2.47
2018-12-04T03:48:34.993Z,2.10
2018-12-04T03:51:03.631Z,3.40
2018-12-04T03:53:32.216Z,2.07
2018-12-04T03:56:00.820Z,2.30
2018-12-04T03:58:29.385Z,2.33
2018-12-04T04:00:57.963Z,3.20
2018-12-04T04:03:26.552Z,2.00
2018-12-04T04:05:55.156Z,1.30
2018-12-04T04:08:23.729Z,1.33
2018-12-04T04:10:52.304Z,1.17
2018-12-04T04:13:27.478Z,1.67
2018-12-04T04:15:56.185Z,2.60
2018-12-04T04:18:24.704Z,1.83
2018-12-04T04:20:53.431Z,1.33
2018-12-04T04:23:22.830Z,2.03
2018-12-04T04:25:51.477Z,1.27
2018-12-04T04:28:20.050Z,1.40
2018-12-04T04:30:48.756Z,2.30
2018-12-04T04:33:17.303Z,1.70
2018-12-04T04:35:45.878Z,1.70
2018-12-04T04:38:14.462Z,2.33
2018-12-04T04:40:43.053Z,1.80
2018-12-04T04:43:11.764Z,1.40
2018-12-04T04:45:40.458Z,1.90
2018-12-04T04:48:09.072Z,1.67
2018-12-04T04:50:38.134Z,1.90
2018-12-04T04:53:07.749Z,1.57
2018-12-04T04:55:36.306Z,1.50
2018-12-04T04:58:04.976Z,1.57
2018-12-04T05:00:33.621Z,1.40
2018-12-04T05:03:02.349Z,1.57
2018-12-04T05:05:35.164Z,1.60
2018-12-04T05:08:03.759Z,1.67
2018-12-04T05:10:33.691Z,1.40
2018-12-04T05:13:02.246Z,1.63
2018-12-04T05:15:30.924Z,1.40
2018-12-04T05:17:59.597Z,1.30
2018-12-04T05:20:28.139Z,1.50
2018-12-04T05:22:56.653Z,1.93
2018-12-04T05:25:25.296Z,1.27
2018-12-04T05:27:53.819Z,2.00
2018-12-04T05:30:22.501Z,2.10
2018-12-04T05:32:51.045Z,2.00
2018-12-04T05:35:20.080Z,1.63
2018-12-04T05:37:48.669Z,1.97
2018-12-04T05:40:17.329Z,1.83
2018-12-04T05:42:45.880Z,2.60
2018-12-04T05:45:14.438Z,1.70
2018-12-04T05:47:43.019Z,2.67
2018-12-04T05:50:11.591Z,2.30
2018-12-04T05:52:40.215Z,1.93
2018-12-04T05:55:10.041Z,2.20
2018-12-04T05:57:38.627Z,2.33
2018-12-04T06:00:09.741Z,2.40
2018-12-04T06:02:38.339Z,3.23
2018-12-04T06:05:07.104Z,2.60
2018-12-04T06:07:35.606Z,2.23
2018-12-04T06:10:04.845Z,2.83
2018-12-04T06:12:33.389Z,2.60
2018-12-04T06:15:01.918Z,2.20
2018-12-04T06:17:30.528Z,5.60
2018-12-04T06:19:59.123Z,1.90
2018-12-04T06:22:27.752Z,3.90
2018-12-04T06:24:56.284Z,8.03
2018-12-04T06:27:24.811Z,16.63
2018-12-04T06:29:53.365Z,11.90
2018-12-04T06:32:21.901Z,12.97
2018-12-04T06:34:50.469Z,24.57
2018-12-04T06:37:18.995Z,25.47
2018-12-04T06:39:47.579Z,3.40
2018-12-04T06:42:16.165Z,5.03
2018-12-04T06:44:46.845Z,3.50
2018-12-04T06:47:15.328Z,5.67
2018-12-04T06:49:43.965Z,2.03
2018-12-04T06:52:12.521Z,3.00
2018-12-04T06:54:41.139Z,2.97
2018-12-04T06:57:09.805Z,40.73
2018-12-04T06:59:38.447Z,6.73
2018-12-04T07:02:07.109Z,6.37
2018-12-04T07:04:35.624Z,1.10
2018-12-04T07:07:04.202Z,0.70
2018-12-04T07:09:32.784Z,0.60
2018-12-04T07:12:02.562Z,0.60
2018-12-04T07:14:31.333Z,0.50
2018-12-04T07:16:59.909Z,0.50
2018-12-04T07:19:28.480Z,0.93
2018-12-04T07:21:57.121Z,0.80
2018-12-04T07:24:25.742Z,1.10
2018-12-04T07:26:54.468Z,1.77
2018-12-04T07:29:23.021Z,0.83
2018-12-04T07:31:51.602Z,1.17
2018-12-04T07:34:20.174Z,0.80
2018-12-04T07:36:48.709Z,1.23
2018-12-04T07:39:17.307Z,0.80
2018-12-04T07:41:45.839Z,0.83
2018-12-04T07:44:14.536Z,1.47
2018-12-04T07:46:43.129Z,1.10
2018-12-04T07:49:11.731Z,0.90
2018-12-04T07:51:40.516Z,0.70
2018-12-04T07:54:09.184Z,1.03
2018-12-04T07:56:38.892Z,0.80
2018-12-04T07:59:07.540Z,0.90
2018-12-04T08:01:36.080Z,0.93
2018-12-04T08:04:04.718Z,0.87
2018-12-04T08:06:33.281Z,1.67
2018-12-04T08:09:01.936Z,1.30
2018-12-04T08:11:30.476Z,1.30
2018-12-04T08:13:59.030Z,1.27
2018-12-04T08:16:27.725Z,1.20
2018-12-04T08:18:56.282Z,1.60
2018-12-04T08:21:24.989Z,1.10
2018-12-04T08:23:53.747Z,2.03
2018-12-04T08:26:22.983Z,1.17
2018-12-04T08:28:51.578Z,1.53
2018-12-04T08:31:21.180Z,1.10
2018-12-04T08:33:49.694Z,1.80
2018-12-04T08:36:18.264Z,0.80
2018-12-04T08:38:46.873Z,1.27
2018-12-04T08:41:15.656Z,1.77
2018-12-04T08:43:44.194Z,1.53
2018-12-04T08:46:12.779Z,2.53
2018-12-04T08:48:41.903Z,2.07
2018-12-04T08:51:10.592Z,2.00
2018-12-04T08:53:39.218Z,1.67
2018-12-04T08:56:07.802Z,1.90
2018-12-04T08:58:36.376Z,2.30
2018-12-04T09:01:05.102Z,1.67
2018-12-04T09:03:33.624Z,1.63
2018-12-04T09:06:02.277Z,1.87
2018-12-04T09:08:30.850Z,1.50
2018-12-04T09:10:59.495Z,1.80
2018-12-04T09:13:28.187Z,1.27
2018-12-04T09:15:56.802Z,1.60
2018-12-04T09:18:25.367Z,1.10
2018-12-04T09:20:54.040Z,1.40
2018-12-04T09:23:22.767Z,5.53
2018-12-04T09:25:51.550Z,7.90
2018-12-04T09:28:20.215Z,7.80
2018-12-04T09:30:49.079Z,18.83
2018-12-04T09:33:17.716Z,4.30
2018-12-04T09:35:46.300Z,5.53
2018-12-04T09:38:14.858Z,2.33
2018-12-04T09:40:43.608Z,1.37
2018-12-04T09:43:12.252Z,1.90
2018-12-04T09:45:40.887Z,1.53
2018-12-04T09:48:09.554Z,1.67
2018-12-04T09:50:38.081Z,2.60
2018-12-04T09:53:06.699Z,2.13
2018-12-04T09:55:35.293Z,14.70
2018-12-04T09:58:03.934Z,2.93
2018-12-04T10:00:32.611Z,3.40
2018-12-04T10:03:01.174Z,2.77
2018-12-04T10:05:29.754Z,2.03
2018-12-04T10:07:58.333Z,2.83
2018-12-04T10:10:26.867Z,2.70
2018-12-04T10:12:55.624Z,2.13
2018-12-04T10:15:24.474Z,2.30
2018-12-04T10:17:53.096Z,2.37
2018-12-04T10:20:21.704Z,2.60
2018-12-04T10:22:50.380Z,2.23
2018-12-04T10:25:19.073Z,3.40
2018-12-04T10:27:47.875Z,2.03
2018-12-04T10:30:16.523Z,2.07
2018-12-04T10:32:49.367Z,1.80
2018-12-04T10:35:17.971Z,1.57
2018-12-04T10:37:46.569Z,1.60
2018-12-04T10:40:15.241Z,3.10
2018-12-04T10:42:43.888Z,1.70
2018-12-04T10:45:12.539Z,2.30
2018-12-04T10:47:41.958Z,2.20
2018-12-04T10:50:10.774Z,1.27
2018-12-04T10:52:39.309Z,2.80
2018-12-04T10:55:07.991Z,1.40
2018-12-04T10:57:36.605Z,5.00
2018-12-04T11:00:08.925Z,9.27
2018-12-04T11:02:42.832Z,2.27
2018-12-04T11:05:11.544Z,3.30
2018-12-04T11:07:40.146Z,2.60
2018-12-04T11:10:08.815Z,1.83
2018-12-04T11:12:37.522Z,1.40
2018-12-04T11:15:06.478Z,1.47
2018-12-04T11:17:35.091Z,1.20
2018-12-04T11:20:04.086Z,0.87
2018-12-04T11:22:32.640Z,1.20
2018-12-04T11:25:01.300Z,1.50
2018-12-04T11:27:30.024Z,1.23
2018-12-04T11:29:58.904Z,1.43
2018-12-04T11:32:27.535Z,4.13
2018-12-04T11:34:56.167Z,1.80
2018-12-04T11:37:24.896Z,1.47
2018-12-04T11:39:53.523Z,2.00
2018-12-04T11:42:22.147Z,1.40
2018-12-04T11:44:50.818Z,1.70
2018-12-04T11:47:19.744Z,2.13
2018-12-04T11:49:48.502Z,1.37
2018-12-04T11:52:17.153Z,5.17
2018-12-04T11:54:45.759Z,3.90
2018-12-04T11:57:14.489Z,1.80
2018-12-04T11:59:43.063Z,1.43
2018-12-04T12:02:11.791Z,2.50
2018-12-04T12:04:40.387Z,1.73
2018-12-04T12:07:09.170Z,1.10
2018-12-04T12:09:37.803Z,3.07
2018-12-04T12:12:06.442Z,1.50
2018-12-04T12:14:34.992Z,1.87
2018-12-04T12:17:03.660Z,1.40
2018-12-04T12:19:32.265Z,2.00
2018-12-04T12:22:00.794Z,1.43
2018-12-04T12:24:29.429Z,1.70
2018-12-04T12:26:58.045Z,1.63
2018-12-04T12:29:26.679Z,2.10
2018-12-04T12:31:56.047Z,2.00
2018-12-04T12:34:24.624Z,1.43
2018-12-04T12:36:53.166Z,1.93
2018-12-04T12:39:21.757Z,2.00
2018-12-04T12:41:50.371Z,1.40
2018-12-04T12:44:19.153Z,3.93
2018-12-04T12:46:48.424Z,2.00
2018-12-04T12:49:17.028Z,1.60
2018-12-04T12:51:45.691Z,5.73
2018-12-04T12:54:14.409Z,2.00
2018-12-04T12:56:42.988Z,2.20
2018-12-04T13:00:14.711Z,1.30
2018-12-04T13:02:43.423Z,2.37
2018-12-04T13:05:12.019Z,2.37
2018-12-04T13:07:40.601Z,2.37
2018-12-04T13:10:10.524Z,3.37
2018-12-04T13:12:39.146Z,2.07
2018-12-04T13:15:08.620Z,1.63
2018-12-04T13:17:37.300Z,1.50
2018-12-04T13:20:07.047Z,1.53
2018-12-04T13:22:35.748Z,1.50
2018-12-04T13:25:05.274Z,1.53
2018-12-04T13:27:33.947Z,1.07
2018-12-04T13:30:02.585Z,1.27
2018-12-04T13:32:33.603Z,1.70
2018-12-04T13:35:02.247Z,1.50
2018-12-04T13:37:30.798Z,1.77
2018-12-04T13:39:59.397Z,2.10
2018-12-04T13:42:28.200Z,1.93
2018-12-04T13:44:56.807Z,1.37
2018-12-04T13:47:25.440Z,2.30
2018-12-04T13:49:54.277Z,1.97
2018-12-04T13:52:22.944Z,1.33
2018-12-04T13:54:51.706Z,1.70
2018-12-04T13:57:20.287Z,1.90
2018-12-04T13:59:48.979Z,4.07
2018-12-04T14:02:17.701Z,2.17
2018-12-04T14:04:46.411Z,1.50
2018-12-04T14:07:15.041Z,8.23
2018-12-04T14:09:43.648Z,3.13
2018-12-04T14:12:12.280Z,2.00
2018-12-04T14:14:41.012Z,5.50
2018-12-04T14:17:09.872Z,3.27
2018-12-04T14:19:38.601Z,4.10
2018-12-04T14:22:07.313Z,1.60
2018-12-04T14:24:36.013Z,1.20
2018-12-04T14:27:04.634Z,1.63
2018-12-04T14:29:33.251Z,2.40
2018-12-04T14:32:02.466Z,2.37
2018-12-04T14:34:31.254Z,1.60
2018-12-04T14:36:59.858Z,3.33
2018-12-04T14:39:29.174Z,1.70
2018-12-04T14:41:57.924Z,2.20
2018-12-04T14:44:27.410Z,3.90
2018-12-04T14:46:56.287Z,2.83
2018-12-04T14:49:25.179Z,2.83
2018-12-04T14:51:53.789Z,2.23
2018-12-04T14:54:23.380Z,3.40
2018-12-04T14:56:51.996Z,2.80
2018-12-04T14:59:21.865Z,2.20
2018-12-04T15:01:52.338Z,1.60
2018-12-04T15:04:22.167Z,1.60
2018-12-04T15:06:50.928Z,1.87
2018-12-04T15:09:19.569Z,1.90
2018-12-04T15:11:48.340Z,2.43
2018-12-04T15:14:16.935Z,3.03
2018-12-04T15:16:45.714Z,3.27
2018-12-04T15:19:14.354Z,3.10
2018-12-04T15:21:43.273Z,2.47
2018-12-04T15:24:12.052Z,2.27
2018-12-04T15:26:40.764Z,1.77
2018-12-04T15:29:09.460Z,2.10
2018-12-04T15:31:38.215Z,2.00
2018-12-04T15:34:06.962Z,1.70
2018-12-04T15:36:36.583Z,1.43
2018-12-04T15:39:08.583Z,2.33
2018-12-04T15:41:37.862Z,2.30
2018-12-04T15:44:06.592Z,4.00
2018-12-04T15:46:35.271Z,4.20
2018-12-04T15:49:04.067Z,3.40
2018-12-04T15:51:32.661Z,2.83
2018-12-04T15:54:01.217Z,3.10
2018-12-04T15:56:29.914Z,3.83
2018-12-04T15:58:58.554Z,3.43
2018-12-04T16:01:27.134Z,4.40
2018-12-04T16:03:55.660Z,3.43
2018-12-04T16:06:24.277Z,3.87
2018-12-04T16:08:52.977Z,3.90
2018-12-04T16:11:22.433Z,3.00
2018-12-04T16:13:52.183Z,3.00
2018-12-04T16:16:21.175Z,2.60
2018-12-04T16:18:50.017Z,3.83
2018-12-04T16:21:18.735Z,3.27
2018-12-04T16:23:47.338Z,2.70
2018-12-04T16:26:17.242Z,3.90
2018-12-04T16:28:45.956Z,3.70
2018-12-04T16:31:14.530Z,5.97
2018-12-04T16:33:43.218Z,6.03
2018-12-04T16:36:11.800Z,5.27
2018-12-04T16:38:40.439Z,3.73
2018-12-04T16:41:09.084Z,3.33
2018-12-04T16:43:37.661Z,5.87
2018-12-04T16:46:06.351Z,5.57
2018-12-04T16:48:34.916Z,5.70
2018-12-04T16:51:03.582Z,5.30
2018-12-04T16:53:32.410Z,5.90
2018-12-04T16:56:01.050Z,5.70
2018-12-04T16:58:29.658Z,7.00
2018-12-04T17:00:58.228Z,7.13
2018-12-04T17:03:26.773Z,8.40
2018-12-04T17:05:55.342Z,6.23
2018-12-04T17:08:23.961Z,4.40
2018-12-04T17:10:52.464Z,4.33
2018-12-04T17:13:21.060Z,4.17
2018-12-04T17:15:49.680Z,4.30
2018-12-04T17:18:18.251Z,5.10
2018-12-04T17:20:46.823Z,6.07
2018-12-04T17:23:15.627Z,5.47
2018-12-04T17:25:44.455Z,5.80
2018-12-04T17:28:14.455Z,6.63
2018-12-04T17:30:43.287Z,6.03
2018-12-04T17:33:11.855Z,4.93
2018-12-04T17:35:40.438Z,5.17
2018-12-04T17:38:09.072Z,5.50
2018-12-04T17:40:37.723Z,5.10
2018-12-04T17:43:06.384Z,4.27
2018-12-04T17:45:34.952Z,4.33
2018-12-04T17:48:03.553Z,3.57
2018-12-04T17:50:32.123Z,3.90
2018-12-04T17:53:00.727Z,4.33
2018-12-04T17:55:29.259Z,10.87
2018-12-04T17:57:58.589Z,7.50
2018-12-04T18:00:28.195Z,6.17
2018-12-04T18:02:57.751Z,5.40
2018-12-04T18:05:26.504Z,5.10
2018-12-04T18:07:55.093Z,4.67
2018-12-04T18:10:23.690Z,4.60
2018-12-04T18:12:52.968Z,4.40
2018-12-04T18:15:21.545Z,3.87
2018-12-04T18:17:50.253Z,4.47
2018-12-04T18:20:18.803Z,5.40
2018-12-04T18:22:47.393Z,4.43
2018-12-04T18:25:16.123Z,5.93
2018-12-04T18:27:44.828Z,5.57
2018-12-04T18:30:13.591Z,5.73
2018-12-04T18:32:42.179Z,5.73
2018-12-04T18:35:10.767Z,6.13
2018-12-04T18:37:39.340Z,7.37
2018-12-04T18:40:08.230Z,6.07
2018-12-04T18:42:36.922Z,6.40
2018-12-04T18:45:07.206Z,7.30
2018-12-04T18:47:35.784Z,6.93
2018-12-04T18:50:06.901Z,7.33
2018-12-04T18:52:35.477Z,6.73
2018-12-04T18:55:04.459Z,7.50
2018-12-04T18:57:33.137Z,7.50
2018-12-04T19:00:01.745Z,7.80
2018-12-04T19:02:30.297Z,7.07
2018-12-04T19:04:58.839Z,8.90
2018-12-04T19:07:27.384Z,10.37
2018-12-04T19:09:56.032Z,9.93
2018-12-04T19:12:24.836Z,9.07
2018-12-04T19:14:55.165Z,8.20
2018-12-04T19:17:23.827Z,8.33
2018-12-04T19:19:52.436Z,7.93
2018-12-04T19:22:21.097Z,8.13
2018-12-04T19:24:49.827Z,7.77
2018-12-04T19:27:18.870Z,10.90
2018-12-04T19:29:47.584Z,11.43
2018-12-04T19:32:16.143Z,11.47
2018-12-04T19:34:44.799Z,8.97
2018-12-04T19:37:13.369Z,6.53
2018-12-04T19:39:42.708Z,7.50
2018-12-04T19:42:11.317Z,5.50
2018-12-04T19:44:40.139Z,4.40
2018-12-04T19:47:08.790Z,5.97
2018-12-04T19:49:37.533Z,5.50
2018-12-04T19:52:06.170Z,4.67
2018-12-04T19:54:34.741Z,4.23
2018-12-04T19:57:03.337Z,4.63
2018-12-04T19:59:31.926Z,4.40
2018-12-04T20:02:01.464Z,6.27
2018-12-04T20:04:30.121Z,4.67
2018-12-04T20:06:58.740Z,4.53
2018-12-04T20:09:27.310Z,7.80
2018-12-04T20:11:56.024Z,5.17
2018-12-04T20:14:24.578Z,4.73
2018-12-04T20:16:53.747Z,4.33
2018-12-04T20:19:22.467Z,4.80
2018-12-04T20:21:50.999Z,5.53
2018-12-04T20:24:19.611Z,5.10
2018-12-04T20:26:48.238Z,5.33
2018-12-04T20:29:16.811Z,4.53
2018-12-04T20:31:45.466Z,5.37
2018-12-04T20:34:13.992Z,5.00
2018-12-04T20:36:42.564Z,5.00
2018-12-04T20:39:11.415Z,5.63
2018-12-04T20:41:39.963Z,4.80
2018-12-04T20:44:08.562Z,5.73
2018-12-04T20:46:37.331Z,3.90
2018-12-04T20:49:05.891Z,5.40
2018-12-04T20:51:34.578Z,5.70
2018-12-04T20:54:03.228Z,5.20
2018-12-04T20:56:31.900Z,4.30
2018-12-04T20:59:00.452Z,4.30
2018-12-04T21:01:29.317Z,4.73
2018-12-04T21:03:57.899Z,3.93
2018-12-04T21:06:26.441Z,5.33
2018-12-04T21:08:55.055Z,5.23
2018-12-04T21:11:23.636Z,5.90
2018-12-04T21:13:52.270Z,6.73
2018-12-04T21:16:21.011Z,5.93
2018-12-04T21:18:49.682Z,5.00
2018-12-04T21:21:18.281Z,4.57
2018-12-04T21:23:46.906Z,4.83
2018-12-04T21:26:15.554Z,4.30
2018-12-04T21:28:49.044Z,4.70
2018-12-04T21:31:23.006Z,5.00
2018-12-04T21:33:57.052Z,5.07
2018-12-04T21:36:31.094Z,4.67
2018-12-04T21:39:04.620Z,5.20
2018-12-04T21:41:38.759Z,5.60
2018-12-04T21:44:12.767Z,5.10
2018-12-04T21:46:46.802Z,5.57
2018-12-04T21:49:15.344Z,4.63
2018-12-04T21:51:44.044Z,5.37
2018-12-04T21:54:12.930Z,5.93
2018-12-04T21:56:41.771Z,7.33
2018-12-04T21:59:11.340Z,6.87
2018-12-04T22:01:40.196Z,7.63
2018-12-04T22:04:08.896Z,6.47
2018-12-04T22:06:37.610Z,5.20
2018-12-04T22:09:07.316Z,5.77
2018-12-04T22:11:36.754Z,6.67
2018-12-04T22:14:05.599Z,6.63
2018-12-04T22:16:35.197Z,6.83
2018-12-04T22:19:03.807Z,8.10
2018-12-04T22:21:32.441Z,7.40
2018-12-04T22:24:01.071Z,8.47
2018-12-04T22:26:29.649Z,7.80
2018-12-04T22:28:58.270Z,7.43
2018-12-04T22:31:26.880Z,7.50
2018-12-04T22:33:55.496Z,7.07
2018-12-04T22:36:26.604Z,7.87
2018-12-04T22:38:55.232Z,10.00
2018-12-04T22:41:23.844Z,8.07
2018-12-04T22:43:52.503Z,7.93
2018-12-04T22:46:21.187Z,8.97
2018-12-04T22:48:49.999Z,7.57
2018-12-04T22:51:18.633Z,6.30
2018-12-04T22:53:47.143Z,8.13
2018-12-04T22:56:15.800Z,6.40
2018-12-04T22:58:44.438Z,8.07
2018-12-04T23:01:15.350Z,6.77
2018-12-04T23:03:43.978Z,7.53
2018-12-04T23:06:12.592Z,6.80
2018-12-04T23:08:45.440Z,6.67
2018-12-04T23:11:14.060Z,7.17
2018-12-04T23:13:42.639Z,6.60
2018-12-04T23:16:11.263Z,7.23
2018-12-04T23:18:40.459Z,7.60
2018-12-04T23:21:09.107Z,7.90
2018-12-04T23:23:37.739Z,6.77
2018-12-04T23:26:06.377Z,6.53
2018-12-04T23:28:34.998Z,6.37
2018-12-04T23:31:03.523Z,7.37
2018-12-04T23:33:32.104Z,7.00
2018-12-04T23:36:00.687Z,7.00
2018-12-04T23:38:29.325Z,6.90
2018-12-04T23:40:57.957Z,6.90
2018-12-04T23:43:26.541Z,6.63
2018-12-04T23:45:55.095Z,6.30
2018-12-04T23:48:23.649Z,6.77
2018-12-04T23:50:52.242Z,7.27
2018-12-04T23:53:21.694Z,7.83
2018-12-04T23:55:50.215Z,8.37
2018-12-04T23:58:18.933Z,6.87
